Time;durP1;ratioP1;P1;durP2;ratioP2;P2;SDS_P1;SDS_P2;PMS_P1;PMS_P2;Temp;Humidity;BMP_temperature;BMP_pressure;BME280_temperature;BME280_humidity;BME280_pressure;Samples;Min_cycle;Max_cycle;Signal;HPM_P1;HPM_P2
2023/01/16 00:01:59;;;;;;;3.50;0.90;;;6.30;99.90;;;;;;5044337;28;20204;-82
2023/01/16 00:04:25;;;;;;;0.70;0.53;;;6.40;30.70;;;;;;5044487;28;20628;-82
2023/01/16 00:06:51;;;;;;;6.23;1.33;;;6.40;11.70;;;;;;5044486;28;20546;-82
2023/01/16 00:09:18;;;;;;;0.90;0.70;;;6.40;1.60;;;;;;5060541;28;20183;-84
2023/01/16 00:11:43;;;;;;;1.67;0.80;;;6.30;76.90;;;;;;5064060;28;20678;-82
2023/01/16 00:14:09;;;;;;;4.53;0.73;;;6.30;36.20;;;;;;5065099;28;20183;-82
2023/01/16 00:16:35;;;;;;;2.20;0.80;;;6.30;17.20;;;;;;5064629;28;20190;-81
2023/01/16 00:19:01;;;;;;;2.90;0.90;;;6.30;1.00;;;;;;5063844;28;20190;-82
2023/01/16 00:21:26;;;;;;;3.83;0.70;;;6.20;1.00;;;;;;5064931;28;20651;-82
2023/01/16 00:23:57;;;;;;;3.53;0.90;;;6.20;1.00;;;;;;5065303;28;20582;-82
2023/01/16 00:26:24;;;;;;;4.60;0.90;;;6.20;21.20;;;;;;5065070;28;20175;-82
2023/01/16 00:28:49;;;;;;;4.97;1.30;;;6.10;1.00;;;;;;5064903;28;20181;-81
2023/01/16 00:31:15;;;;;;;6.00;1.00;;;6.10;39.10;;;;;;5064826;28;20222;-82
2023/01/16 00:33:42;;;;;;;3.30;0.77;;;6.10;68.50;;;;;;5065222;28;20215;-81
2023/01/16 00:36:08;;;;;;;3.60;0.70;;;6.00;96.90;;;;;;5063504;28;20251;-82
2023/01/16 00:38:34;;;;;;;2.43;0.97;;;6.00;91.40;;;;;;5064925;28;20229;-81
2023/01/16 00:41:00;;;;;;;2.37;0.70;;;5.90;99.90;;;;;;5063634;28;20208;-82
2023/01/16 00:43:25;;;;;;;3.07;0.70;;;5.90;99.90;;;;;;5063520;28;20293;-81
2023/01/16 00:45:51;;;;;;;1.77;0.70;;;5.90;99.90;;;;;;5062867;28;20202;-83
2023/01/16 00:48:16;;;;;;;0.80;0.60;;;5.80;99.90;;;;;;5063850;28;20290;-81
2023/01/16 00:50:42;;;;;;;0.90;0.53;;;5.80;99.90;;;;;;5063922;28;20194;-82
2023/01/16 00:53:07;;;;;;;2.90;0.60;;;5.80;99.90;;;;;;5065335;28;20216;-83
2023/01/16 00:55:35;;;;;;;4.17;1.00;;;5.70;99.90;;;;;;5064092;28;20261;-81
2023/01/16 00:58:00;;;;;;;2.20;0.80;;;5.70;99.90;;;;;;5063804;28;20190;-82
2023/01/16 01:00:26;;;;;;;1.10;0.60;;;5.60;99.90;;;;;;5063941;28;20192;-82
2023/01/16 01:02:52;;;;;;;2.80;1.00;;;5.60;99.90;;;;;;5064572;28;20176;-82
2023/01/16 01:05:18;;;;;;;3.43;0.67;;;5.60;99.90;;;;;;5064165;28;20297;-82
2023/01/16 01:07:43;;;;;;;2.80;0.70;;;5.50;99.90;;;;;;5062283;28;20213;-81
2023/01/16 01:10:09;;;;;;;3.90;1.07;;;5.60;99.90;;;;;;5064814;28;20172;-82
2023/01/16 01:12:35;;;;;;;2.77;0.80;;;5.50;99.90;;;;;;5064666;28;20176;-82
2023/01/16 01:15:01;;;;;;;4.90;0.87;;;5.50;99.90;;;;;;5063448;28;20229;-82
2023/01/16 01:17:26;;;;;;;5.67;1.27;;;5.50;99.90;;;;;;5063827;28;20324;-82
2023/01/16 01:19:52;;;;;;;6.47;1.10;;;5.50;99.90;;;;;;5063327;28;20243;-82
2023/01/16 01:22:18;;;;;;;3.83;0.93;;;5.50;99.90;;;;;;5063854;28;20203;-82
2023/01/16 01:24:47;;;;;;;2.23;0.90;;;5.40;99.90;;;;;;5064600;28;20203;-82
2023/01/16 01:27:12;;;;;;;4.17;0.90;;;5.40;99.90;;;;;;5052936;28;20176;-82
2023/01/16 01:29:38;;;;;;;2.87;0.80;;;5.40;99.90;;;;;;5043580;28;20275;-82
2023/01/16 01:32:05;;;;;;;3.10;1.00;;;5.30;99.90;;;;;;5045320;28;20228;-82
2023/01/16 01:34:33;;;;;;;2.20;0.93;;;5.30;99.90;;;;;;5044720;28;20636;-82
2023/01/16 01:37:03;;;;;;;3.77;1.13;;;5.40;99.90;;;;;;5053674;28;20180;-81
2023/01/16 01:39:28;;;;;;;3.53;0.80;;;5.30;99.90;;;;;;5063552;28;20551;-82
2023/01/16 01:42:41;;;;;;;2.10;0.80;;;5.30;99.90;;;;;;5062887;28;20192;-81
2023/01/16 01:44:53;;;;;;;2.87;0.93;;;5.40;99.90;;;;;;5064933;28;20199;-81
2023/01/16 01:47:27;;;;;;;1.17;0.77;;;5.20;99.90;;;;;;5064227;28;20163;-83
2023/01/16 01:49:54;;;;;;;4.10;1.00;;;5.20;99.90;;;;;;5063453;28;20258;-82
2023/01/16 01:52:21;;;;;;;3.67;1.10;;;5.20;99.90;;;;;;5064442;28;20616;-82
2023/01/16 01:54:53;;;;;;;1.47;1.03;;;5.20;99.90;;;;;;5063266;28;20197;-82
2023/01/16 01:57:35;;;;;;;4.57;1.00;;;5.20;99.90;;;;;;5063079;28;20164;-85
2023/01/16 02:00:11;;;;;;;3.67;0.90;;;5.20;99.90;;;;;;5044429;28;20548;-82
2023/01/16 02:02:41;;;;;;;1.13;0.83;;;5.20;99.90;;;;;;5043485;28;20283;-82
2023/01/16 02:05:10;;;;;;;3.53;0.80;;;5.20;99.90;;;;;;5049442;28;20207;-82
2023/01/16 02:07:36;;;;;;;4.50;1.03;;;5.20;99.90;;;;;;5064907;28;20529;-82
2023/01/16 02:10:20;;;;;;;2.00;0.60;;;5.20;99.90;;;;;;5066110;28;20174;-82
2023/01/16 02:12:46;;;;;;;1.27;0.63;;;5.20;99.90;;;;;;5064603;28;20508;-81
2023/01/16 02:15:11;;;;;;;3.80;1.13;;;5.20;99.90;;;;;;5061555;28;20179;-82
2023/01/16 02:20:30;;;;;;;5.57;0.87;;;5.30;99.90;;;;;;5063933;28;20253;-82
2023/01/16 02:23:10;;;;;;;4.10;0.80;;;5.30;99.90;;;;;;5064783;28;20171;-82
2023/01/16 02:25:47;;;;;;;3.53;1.00;;;5.30;99.90;;;;;;5064483;28;20186;-81
2023/01/16 02:28:38;;;;;;;1.17;0.50;;;5.30;99.90;;;;;;5048918;28;20172;-82
2023/01/16 02:31:40;;;;;;;2.43;1.10;;;5.30;99.90;;;;;;5044121;28;20723;-82
2023/01/16 02:34:26;;;;;;;2.23;0.70;;;5.30;99.90;;;;;;5044340;28;20175;-82
2023/01/16 02:37:28;;;;;;;3.20;0.80;;;5.30;99.90;;;;;;5062819;28;20188;-82
2023/01/16 02:40:32;;;;;;;2.27;0.63;;;5.30;99.90;;;;;;5062706;28;20254;-82
2023/01/16 02:43:32;;;;;;;2.00;0.70;;;5.40;99.90;;;;;;5029480;28;20187;-82
2023/01/16 02:46:12;;;;;;;2.80;1.03;;;5.40;99.90;;;;;;5061461;28;20225;-82
2023/01/16 02:48:53;;;;;;;3.57;0.80;;;5.40;99.90;;;;;;5063192;28;20221;-82
2023/01/16 02:51:32;;;;;;;2.83;0.80;;;5.40;99.90;;;;;;5061284;28;20191;-82
2023/01/16 02:54:10;;;;;;;4.00;1.10;;;5.50;99.90;;;;;;5062630;28;20256;-82
2023/01/16 02:56:46;;;;;;;2.33;0.70;;;5.50;99.90;;;;;;5061967;28;20202;-83
2023/01/16 02:59:15;;;;;;;4.73;0.90;;;5.50;99.90;;;;;;5042689;28;20650;-82
2023/01/16 03:01:40;;;;;;;3.77;1.27;;;5.50;99.90;;;;;;5043978;28;20683;-82
2023/01/16 03:04:40;;;;;;;1.53;0.50;;;5.50;99.90;;;;;;5056511;28;20231;-82
2023/01/16 03:07:36;;;;;;;2.77;0.80;;;5.60;99.90;;;;;;5074565;28;20198;-82
2023/01/16 03:10:24;;;;;;;4.87;0.93;;;5.60;99.90;;;;;;5076413;28;20160;-82
2023/01/16 03:13:15;;;;;;;4.77;0.80;;;5.60;99.90;;;;;;5075792;28;20144;-82
2023/01/16 03:16:02;;;;;;;6.77;3.10;;;5.60;99.90;;;;;;5070769;28;20217;-81
2023/01/16 03:18:52;;;;;;;5.87;0.90;;;5.60;99.90;;;;;;5069195;28;20163;-82
2023/01/16 03:21:37;;;;;;;3.33;0.90;;;5.60;99.90;;;;;;5067441;28;20235;-82
2023/01/16 03:24:10;;;;;;;2.30;0.70;;;5.60;99.90;;;;;;5068626;28;20199;-82
2023/01/16 03:26:47;;;;;;;2.67;0.97;;;5.60;99.90;;;;;;5066093;28;20172;-82
2023/01/16 03:29:40;;;;;;;1.87;0.80;;;5.50;99.90;;;;;;5064882;28;20163;-82
2023/01/16 03:32:26;;;;;;;5.40;0.90;;;5.50;99.90;;;;;;5065158;28;20259;-82
2023/01/16 03:35:03;;;;;;;1.20;0.70;;;5.40;99.90;;;;;;5065096;28;20170;-84
2023/01/16 03:37:36;;;;;;;1.93;0.67;;;5.40;99.90;;;;;;5062570;28;20180;-82
2023/01/16 03:40:04;;;;;;;1.93;0.70;;;5.40;99.90;;;;;;5063674;28;20168;-82
2023/01/16 03:42:35;;;;;;;2.30;0.70;;;5.40;99.90;;;;;;5063883;28;20271;-82
2023/01/16 03:45:20;;;;;;;0.60;0.50;;;5.30;99.90;;;;;;5065359;28;20181;-82
2023/01/16 03:47:52;;;;;;;0.63;0.60;;;5.30;99.90;;;;;;5063814;28;20176;-81
2023/01/16 03:50:20;;;;;;;1.73;0.80;;;5.30;99.90;;;;;;5063301;28;20164;-82
2023/01/16 03:52:53;;;;;;;0.80;0.50;;;5.30;99.90;;;;;;5064657;28;20168;-82
2023/01/16 03:55:45;;;;;;;1.77;0.73;;;5.30;99.90;;;;;;5064845;28;20635;-82
2023/01/16 03:58:24;;;;;;;1.97;0.70;;;5.30;99.90;;;;;;5060641;28;20192;-82
2023/01/16 04:01:22;;;;;;;1.20;0.50;;;5.20;99.90;;;;;;5064787;28;20191;-81
2023/01/16 04:03:53;;;;;;;0.63;0.57;;;5.20;99.90;;;;;;5064409;28;20222;-82
2023/01/16 04:06:36;;;;;;;1.43;0.50;;;5.20;99.90;;;;;;5063332;28;20241;-82
2023/01/16 04:09:09;;;;;;;1.50;0.70;;;5.20;99.90;;;;;;5048505;28;20208;-82
2023/01/16 04:11:38;;;;;;;4.00;1.10;;;5.20;99.90;;;;;;5058723;28;20219;-82
2023/01/16 04:14:07;;;;;;;1.37;0.50;;;5.20;99.90;;;;;;5041298;28;20203;-82
2023/01/16 04:16:34;;;;;;;1.17;0.40;;;5.20;99.90;;;;;;5041216;28;20206;-82
2023/01/16 04:19:02;;;;;;;0.97;0.50;;;5.10;99.90;;;;;;5054292;28;20231;-80
2023/01/16 04:21:28;;;;;;;0.83;0.40;;;5.10;99.90;;;;;;5058561;28;20227;-80
2023/01/16 04:23:56;;;;;;;0.73;0.67;;;5.10;99.90;;;;;;5058736;28;20561;-80
2023/01/16 04:26:22;;;;;;;3.93;0.90;;;5.10;99.90;;;;;;5060124;28;20624;-80
2023/01/16 04:28:52;;;;;;;1.50;0.40;;;5.00;99.90;;;;;;5059367;28;20187;-80
2023/01/16 04:31:19;;;;;;;0.83;0.30;;;5.00;99.90;;;;;;5060010;28;20192;-80
2023/01/16 04:33:44;;;;;;;1.53;0.40;;;5.00;99.90;;;;;;5059371;28;20176;-81
2023/01/16 04:36:10;;;;;;;0.50;0.50;;;5.00;99.90;;;;;;5057647;28;20184;-81
2023/01/16 04:38:35;;;;;;;2.03;0.53;;;5.00;99.90;;;;;;5058400;28;20180;-81
2023/01/16 04:41:01;;;;;;;0.40;0.40;;;4.90;99.90;;;;;;5061389;28;20195;-81
2023/01/16 04:43:26;;;;;;;1.30;0.53;;;4.90;99.90;;;;;;5063936;28;20199;-83
2023/01/16 04:45:52;;;;;;;0.43;0.33;;;4.90;99.90;;;;;;5064277;28;20570;-80
2023/01/16 04:48:17;;;;;;;1.70;0.60;;;4.80;99.90;;;;;;5055418;28;20314;-80
2023/01/16 04:50:43;;;;;;;1.27;0.53;;;4.90;99.90;;;;;;5044691;28;20196;-80
2023/01/16 04:53:08;;;;;;;1.30;0.50;;;4.90;99.90;;;;;;5042251;28;20218;-80
2023/01/16 04:55:34;;;;;;;0.77;0.50;;;4.90;99.90;;;;;;5044174;28;20176;-80
2023/01/16 04:57:59;;;;;;;1.00;0.50;;;4.90;99.90;;;;;;5045950;28;20191;-80
2023/01/16 05:00:25;;;;;;;1.77;0.80;;;4.90;99.90;;;;;;5064413;28;20178;-80
2023/01/16 05:02:52;;;;;;;1.07;0.50;;;4.90;99.90;;;;;;5063931;28;20172;-80
2023/01/16 05:05:18;;;;;;;4.90;1.57;;;4.90;99.90;;;;;;5063544;28;20203;-80
2023/01/16 05:07:43;;;;;;;3.93;0.60;;;4.90;99.90;;;;;;5061799;28;20202;-81
2023/01/16 05:10:09;;;;;;;5.17;0.87;;;4.90;99.90;;;;;;5061777;28;20179;-81
2023/01/16 05:12:35;;;;;;;4.87;0.73;;;4.90;99.90;;;;;;5063042;28;20179;-80
2023/01/16 05:15:00;;;;;;;3.37;1.03;;;4.90;99.90;;;;;;5063359;28;20180;-80
2023/01/16 05:17:26;;;;;;;3.27;0.70;;;4.90;99.90;;;;;;5061006;28;20195;-80
2023/01/16 05:19:52;;;;;;;2.23;0.60;;;4.80;99.90;;;;;;5062874;28;20563;-80
2023/01/16 05:22:17;;;;;;;2.47;0.70;;;4.90;99.90;;;;;;5061753;28;20648;-79
2023/01/16 05:24:43;;;;;;;1.17;0.50;;;4.90;99.90;;;;;;5062459;28;20210;-80
2023/01/16 05:27:08;;;;;;;2.53;1.00;;;4.90;99.90;;;;;;5051735;28;20181;-80
2023/01/16 05:29:34;;;;;;;1.67;0.80;;;4.90;99.90;;;;;;5042230;28;20647;-80
2023/01/16 05:31:59;;;;;;;3.43;0.60;;;4.90;99.90;;;;;;5043451;28;20283;-80
2023/01/16 05:34:25;;;;;;;2.77;0.63;;;4.90;99.90;;;;;;5041627;28;20266;-80
2023/01/16 05:36:50;;;;;;;2.70;0.90;;;4.90;99.90;;;;;;5050526;28;20244;-79
2023/01/16 05:39:16;;;;;;;2.57;1.10;;;4.90;99.90;;;;;;5059703;28;20571;-80
2023/01/16 05:41:41;;;;;;;0.60;0.60;;;5.00;99.90;;;;;;5061824;28;20198;-80
2023/01/16 05:44:07;;;;;;;0.53;0.53;;;5.00;99.90;;;;;;5063216;28;20675;-80
2023/01/16 05:46:33;;;;;;;1.73;0.90;;;5.10;99.90;;;;;;5062078;28;20167;-81
2023/01/16 05:48:58;;;;;;;4.83;0.97;;;5.00;99.90;;;;;;5062207;28;20226;-80
2023/01/16 05:51:24;;;;;;;2.93;0.70;;;5.10;99.90;;;;;;5060909;28;20191;-80
2023/01/16 05:53:52;;;;;;;1.27;0.67;;;5.10;99.90;;;;;;5062644;28;20590;-79
2023/01/16 05:56:25;;;;;;;2.27;0.80;;;5.10;99.90;;;;;;5062621;28;20659;-80
2023/01/16 05:58:51;;;;;;;3.93;0.80;;;5.10;99.90;;;;;;5047666;28;20259;-81
2023/01/16 06:01:16;;;;;;;2.10;0.70;;;5.20;99.90;;;;;;5041542;28;20224;-80
2023/01/16 06:03:42;;;;;;;1.90;0.60;;;5.20;99.90;;;;;;5042928;28;20207;-80
2023/01/16 06:06:07;;;;;;;1.57;0.70;;;5.20;99.90;;;;;;5058009;28;20181;-80
2023/01/16 06:08:33;;;;;;;3.50;0.73;;;5.20;99.90;;;;;;5060531;28;20231;-80
2023/01/16 06:10:58;;;;;;;3.60;0.90;;;5.20;99.90;;;;;;5066241;28;20623;-80
2023/01/16 06:13:24;;;;;;;0.73;0.50;;;5.20;99.90;;;;;;5071631;28;20194;-81
2023/01/16 06:15:49;;;;;;;4.33;0.90;;;5.30;99.90;;;;;;5065980;28;20163;-80
2023/01/16 06:18:16;;;;;;;3.93;0.70;;;5.30;99.90;;;;;;5066548;28;20171;-80
2023/01/16 06:20:42;;;;;;;1.17;0.60;;;5.30;99.90;;;;;;5080834;28;20246;-80
2023/01/16 06:23:08;;;;;;;1.23;0.50;;;5.30;99.90;;;;;;5081766;28;20198;-81
2023/01/16 06:25:34;;;;;;;3.73;0.63;;;5.30;99.90;;;;;;5082170;28;20171;-80
2023/01/16 06:27:59;;;;;;;3.43;0.70;;;5.30;99.90;;;;;;5075722;28;20255;-80
2023/01/16 06:30:25;;;;;;;1.43;0.57;;;5.30;99.90;;;;;;5062562;28;20192;-84
2023/01/16 06:32:50;;;;;;;3.07;0.60;;;5.30;99.90;;;;;;5060708;28;20591;-84
2023/01/16 06:35:17;;;;;;;0.57;0.40;;;5.30;99.90;;;;;;5061635;28;20647;-83
2023/01/16 06:37:43;;;;;;;3.53;0.70;;;5.70;99.90;;;;;;5061319;28;20243;-84
2023/01/16 06:40:09;;;;;;;1.17;0.43;;;5.40;99.90;;;;;;5060354;28;20195;-84
2023/01/16 06:42:34;;;;;;;3.77;0.80;;;5.40;99.90;;;;;;5059643;28;20167;-84
2023/01/16 06:45:00;;;;;;;1.43;0.50;;;5.40;99.90;;;;;;5060641;28;20210;-83
2023/01/16 06:47:27;;;;;;;4.23;1.13;;;5.40;99.90;;;;;;5060849;28;20183;-83
2023/01/16 06:49:53;;;;;;;1.67;0.57;;;5.40;99.90;;;;;;5060954;28;20211;-83
2023/01/16 06:52:18;;;;;;;2.10;0.40;;;5.50;99.90;;;;;;5059664;28;20253;-82
2023/01/16 06:54:44;;;;;;;1.30;0.67;;;5.50;99.90;;;;;;5059068;28;20225;-83
2023/01/16 06:57:09;;;;;;;3.47;0.60;;;5.50;99.90;;;;;;5060919;28;20647;-83
2023/01/16 06:59:35;;;;;;;1.07;0.40;;;5.50;99.90;;;;;;5041311;28;20176;-83
2023/01/16 07:02:00;;;;;;;1.63;0.60;;;5.50;99.90;;;;;;5055349;28;20195;-83
2023/01/16 07:04:26;;;;;;;2.60;0.70;;;5.50;99.90;;;;;;5056434;28;20204;-84
2023/01/16 07:06:52;;;;;;;2.33;0.53;;;5.50;99.90;;;;;;5057083;28;20169;-82
2023/01/16 07:09:18;;;;;;;1.57;0.40;;;5.50;99.90;;;;;;5055657;28;20176;-83
2023/01/16 07:11:43;;;;;;;1.07;0.37;;;5.60;99.90;;;;;;5061796;28;20195;-82
2023/01/16 07:22:38;;;;;;;0.93;0.50;;;5.60;99.90;;;;;;5060596;28;20305;-83
2023/01/16 07:25:10;;;;;;;2.30;0.73;;;5.60;99.90;;;;;;5059775;28;20187;-83
2023/01/16 07:27:36;;;;;;;2.57;0.80;;;5.60;99.90;;;;;;5059330;28;20590;-83
2023/01/16 07:30:02;;;;;;;2.93;0.70;;;5.60;99.90;;;;;;5061248;28;20197;-82
2023/01/16 07:32:28;;;;;;;1.60;0.80;;;5.60;99.90;;;;;;5059840;28;20206;-82
2023/01/16 07:34:53;;;;;;;0.70;0.60;;;5.60;99.90;;;;;;5044211;28;20563;-82
2023/01/16 07:37:19;;;;;;;2.07;0.70;;;5.60;99.90;;;;;;5055772;28;20561;-84
2023/01/16 07:39:44;;;;;;;3.60;1.03;;;5.60;99.90;;;;;;5058230;28;20175;-82
2023/01/16 07:42:10;;;;;;;0.53;0.53;;;5.60;99.90;;;;;;5059805;28;20195;-82
2023/01/16 07:44:35;;;;;;;1.17;0.73;;;5.60;99.90;;;;;;5058069;28;20195;-82
2023/01/16 07:47:01;;;;;;;1.50;0.60;;;5.60;99.90;;;;;;5059697;28;20199;-81
2023/01/16 07:49:26;;;;;;;3.03;0.50;;;5.60;99.90;;;;;;5059559;28;20179;-81
2023/01/16 07:51:53;;;;;;;2.50;0.93;;;5.60;99.90;;;;;;5060130;28;20195;-81
2023/01/16 07:54:18;;;;;;;1.30;0.90;;;5.50;99.90;;;;;;5057332;28;20178;-79
2023/01/16 07:56:44;;;;;;;4.90;0.90;;;5.60;99.90;;;;;;5058738;28;20234;-79
2023/01/16 07:59:09;;;;;;;1.83;0.90;;;5.50;99.90;;;;;;5056985;28;20200;-80
2023/01/16 08:01:35;;;;;;;2.90;1.00;;;5.60;99.90;;;;;;5058217;28;20230;-79
2023/01/16 08:04:00;;;;;;;2.93;0.77;;;5.60;99.90;;;;;;5058993;28;20257;-79
2023/01/16 08:06:26;;;;;;;3.80;1.10;;;5.60;99.90;;;;;;5060309;28;20231;-80
2023/01/16 08:08:52;;;;;;;1.53;0.87;;;5.60;99.90;;;;;;5058743;28;20183;-79
2023/01/16 08:11:35;;;;;;;2.83;0.90;;;5.60;99.90;;;;;;5058005;28;20238;-79
2023/01/16 08:14:02;;;;;;;2.63;1.20;;;5.60;99.90;;;;;;5057978;28;20277;-78
2023/01/16 08:16:28;;;;;;;2.90;0.83;;;5.50;99.90;;;;;;5059686;28;20190;-79
2023/01/16 08:18:53;;;;;;;2.07;0.67;;;5.60;99.90;;;;;;5057896;28;20180;-79
2023/01/16 08:21:19;;;;;;;5.50;0.63;;;5.60;99.90;;;;;;5062293;28;20207;-79
2023/01/16 08:23:45;;;;;;;4.83;1.00;;;5.60;99.90;;;;;;5062717;28;20207;-79
2023/01/16 08:26:12;;;;;;;3.70;0.70;;;5.50;99.90;;;;;;5059224;28;20772;-78
2023/01/16 08:28:38;;;;;;;1.73;0.80;;;5.50;99.90;;;;;;5057645;28;20168;-78
2023/01/16 08:31:07;;;;;;;3.17;0.80;;;5.60;99.90;;;;;;5055855;28;20207;-78
2023/01/16 08:33:37;;;;;;;2.27;0.83;;;5.50;99.90;;;;;;5056858;28;20233;-78
2023/01/16 08:36:05;;;;;;;2.43;0.97;;;5.60;99.90;;;;;;5057913;28;20199;-78
2023/01/16 08:38:30;;;;;;;3.43;1.00;;;5.60;99.90;;;;;;5056438;28;20643;-78
2023/01/16 08:40:56;;;;;;;1.67;0.73;;;5.60;99.90;;;;;;5051358;28;20243;-78
2023/01/16 08:51:55;;;;;;;3.20;0.90;;;5.60;99.90;;;;;;5063110;28;20199;-79
2023/01/16 08:54:20;;;;;;;4.30;1.00;;;5.60;99.90;;;;;;5063115;28;20172;-79
2023/01/16 08:56:46;;;;;;;5.03;0.80;;;5.70;99.90;;;;;;5062354;28;20183;-79
2023/01/16 08:59:11;;;;;;;3.13;0.80;;;5.70;99.90;;;;;;5061444;28;20261;-79
2023/01/16 09:01:41;;;;;;;2.53;0.87;;;5.70;99.90;;;;;;5060985;28;20218;-79
2023/01/16 09:04:07;;;;;;;3.40;1.03;;;5.70;99.90;;;;;;5062547;28;20249;-79
2023/01/16 09:06:35;;;;;;;1.07;0.77;;;5.70;99.90;;;;;;5059789;28;20168;-79
2023/01/16 09:09:05;;;;;;;1.77;0.80;;;5.70;99.90;;;;;;5061186;28;20163;-77
2023/01/16 09:14:16;;;;;;;7.00;0.70;;;5.60;99.90;;;;;;5056089;28;20581;-76
2023/01/16 09:16:42;;;;;;;1.87;0.80;;;5.70;99.90;;;;;;5053444;28;20262;-75
2023/01/16 09:19:08;;;;;;;2.00;0.93;;;5.60;99.90;;;;;;5043599;28;20246;-76
2023/01/16 09:21:33;;;;;;;0.83;0.50;;;5.60;99.90;;;;;;5051561;28;20698;-76
2023/01/16 09:23:59;;;;;;;2.93;0.80;;;5.60;99.90;;;;;;5055554;28;20650;-76
2023/01/16 09:26:24;;;;;;;3.03;1.13;;;5.60;99.90;;;;;;5053631;28;20175;-77
2023/01/16 09:28:50;;;;;;;3.93;1.10;;;5.60;99.90;;;;;;5055308;28;20639;-76
2023/01/16 09:31:16;;;;;;;1.23;0.80;;;5.60;99.90;;;;;;5055830;28;20183;-76
2023/01/16 09:33:41;;;;;;;1.57;0.80;;;5.60;99.90;;;;;;5055071;28;20214;-77
2023/01/16 09:36:07;;;;;;;2.23;0.70;;;5.60;99.90;;;;;;5054470;28;20180;-77
2023/01/16 09:38:33;;;;;;;2.67;0.80;;;5.60;99.90;;;;;;5052952;28;20183;-76
2023/01/16 09:40:59;;;;;;;2.10;0.83;;;5.60;99.90;;;;;;5052889;28;20207;-76
2023/01/16 09:43:40;;;;;;;2.07;0.70;;;5.60;99.90;;;;;;5054838;28;20242;-77
2023/01/16 09:46:20;;;;;;;1.37;0.50;;;5.60;99.90;;;;;;5054910;28;20156;-77
2023/01/16 09:48:48;;;;;;;2.10;0.50;;;5.60;99.90;;;;;;5053659;28;20176;-76
2023/01/16 09:51:23;;;;;;;3.00;0.63;;;5.60;99.90;;;;;;5052636;28;20226;-77
2023/01/16 09:59:42;;;;;;;1.80;0.67;;;5.60;99.90;;;;;;5054256;28;20194;-77
2023/01/16 10:02:22;;;;;;;1.90;0.67;;;5.60;99.90;;;;;;5054516;28;20191;-76
2023/01/16 10:04:49;;;;;;;0.40;0.40;;;5.60;99.90;;;;;;5053259;28;20206;-77
2023/01/16 10:07:39;;;;;;;2.80;0.80;;;5.60;99.90;;;;;;5054622;28;20191;-76
2023/01/16 10:10:39;;;;;;;0.93;0.60;;;5.70;99.90;;;;;;5054412;28;20190;-77
2023/01/16 10:13:19;;;;;;;3.07;0.60;;;5.70;99.90;;;;;;5063591;28;20182;-77
2023/01/16 10:16:06;;;;;;;0.60;0.43;;;5.70;99.90;;;;;;5054399;28;20202;-77
2023/01/16 10:19:01;;;;;;;0.93;0.50;;;5.60;99.90;;;;;;5053404;28;20179;-77
2023/01/16 10:21:32;;;;;;;2.47;0.53;;;5.70;99.90;;;;;;5051090;28;20638;-76
2023/01/16 10:24:11;;;;;;;1.03;0.53;;;5.70;99.90;;;;;;5052556;28;20214;-76
2023/01/16 10:26:53;;;;;;;0.93;0.40;;;5.60;99.90;;;;;;5052808;28;20623;-77
2023/01/16 10:29:33;;;;;;;3.70;0.50;;;5.70;99.90;;;;;;5052645;28;20175;-77
2023/01/16 10:32:04;;;;;;;2.20;0.63;;;5.70;99.90;;;;;;5054224;28;20586;-77
2023/01/16 10:34:38;;;;;;;1.10;0.47;;;5.70;99.90;;;;;;5052703;28;20270;-77
2023/01/16 10:37:06;;;;;;;1.43;0.73;;;5.60;99.90;;;;;;5054335;28;20528;-77
2023/01/16 10:39:35;;;;;;;1.73;0.60;;;5.60;99.90;;;;;;5051312;28;20730;-77
2023/01/16 10:50:31;;;;;;;0.83;0.50;;;5.80;99.90;;;;;;5052931;28;20215;-78
2023/01/16 10:52:57;;;;;;;0.57;0.47;;;5.80;99.90;;;;;;5052240;28;20176;-77
2023/01/16 10:55:22;;;;;;;1.40;0.60;;;5.80;99.90;;;;;;5053475;28;20546;-76
2023/01/16 10:57:55;;;;;;;1.17;0.47;;;5.80;99.90;;;;;;5052285;28;20171;-77
2023/01/16 11:00:29;;;;;;;1.77;0.60;;;5.90;99.90;;;;;;5052058;28;20179;-77
2023/01/16 11:03:07;;;;;;;0.73;0.63;;;5.90;99.90;;;;;;5053488;28;20156;-77
2023/01/16 11:05:35;;;;;;;0.60;0.43;;;5.90;99.90;;;;;;5053620;28;20625;-77
2023/01/16 11:08:13;;;;;;;0.70;0.50;;;6.00;99.90;;;;;;5053496;28;20168;-77
2023/01/16 11:10:44;;;;;;;0.80;0.40;;;5.90;99.90;;;;;;5052369;28;20214;-77
2023/01/16 11:19:31;;;;;;;1.20;0.53;;;6.10;99.90;;;;;;5052406;28;20770;-78
2023/01/16 11:22:07;;;;;;;1.17;0.47;;;6.10;99.90;;;;;;5053003;28;20666;-77
2023/01/16 11:24:35;;;;;;;0.53;0.40;;;6.10;99.90;;;;;;5053024;28;20213;-77
2023/01/16 11:27:02;;;;;;;0.97;0.70;;;6.10;99.90;;;;;;5053008;28;20197;-77
2023/01/16 11:29:36;;;;;;;0.30;0.30;;;6.10;99.90;;;;;;5051133;28;20268;-78
2023/01/16 11:32:09;;;;;;;1.50;0.50;;;6.20;99.90;;;;;;5052945;28;20194;-77
2023/01/16 11:34:38;;;;;;;1.23;0.50;;;6.20;99.90;;;;;;5051823;28;20565;-77
2023/01/16 11:37:07;;;;;;;0.83;0.50;;;6.20;99.90;;;;;;5053493;28;20556;-77
2023/01/16 11:39:34;;;;;;;0.40;0.40;;;6.20;99.90;;;;;;5051813;28;20241;-77
2023/01/16 11:46:02;;;;;;;1.40;0.37;;;6.30;99.90;;;;;;5052786;28;20191;-77
2023/01/16 11:47:53;;;;;;;0.67;0.47;;;6.30;1.00;;;;;;5052152;28;20611;-77
2023/01/16 11:50:33;;;;;;;0.50;0.50;;;6.30;1.40;;;;;;5050801;28;20170;-78
2023/01/16 11:52:59;;;;;;;0.90;0.50;;;6.30;90.40;;;;;;5052813;28;20171;-77
2023/01/16 11:55:38;;;;;;;0.60;0.40;;;6.30;66.30;;;;;;5052689;28;20176;-78
2023/01/16 11:58:25;;;;;;;0.50;0.40;;;6.30;62.90;;;;;;5052004;28;20175;-77
2023/01/16 12:01:11;;;;;;;0.83;0.50;;;6.30;99.90;;;;;;5052606;28;20202;-78
2023/01/16 12:03:59;;;;;;;0.63;0.63;;;6.30;99.90;;;;;;5052741;28;20168;-78
2023/01/16 12:06:46;;;;;;;0.97;0.30;;;6.40;99.90;;;;;;5051357;28;20176;-78
2023/01/16 12:09:18;;;;;;;0.43;0.40;;;6.40;99.90;;;;;;5035586;28;20181;-77
2023/01/16 12:15:30;;;;;;;0.90;0.50;;;6.40;99.90;;;;;;5052870;28;20163;-78
2023/01/16 12:18:12;;;;;;;0.37;0.33;;;6.50;99.90;;;;;;5039567;28;20180;-77
2023/01/16 12:20:37;;;;;;;1.93;0.50;;;6.50;99.90;;;;;;5043063;28;20306;-78
2023/01/16 12:23:32;;;;;;;0.97;0.50;;;6.50;99.90;;;;;;5052695;28;20198;-78
2023/01/16 12:26:14;;;;;;;1.60;0.60;;;6.50;89.50;;;;;;5052649;28;20662;-77
2023/01/16 12:29:15;;;;;;;0.67;0.47;;;6.50;74.40;;;;;;5050413;28;20223;-79
2023/01/16 12:31:58;;;;;;;0.50;0.50;;;6.40;93.20;;;;;;5053045;28;20674;-77
2023/01/16 12:34:40;;;;;;;3.10;0.60;;;6.50;9.20;;;;;;5052512;28;20194;-77
2023/01/16 12:37:43;;;;;;;0.60;0.60;;;6.40;46.80;;;;;;5051048;28;20654;-77
2023/01/16 12:40:40;;;;;;;0.50;0.50;;;6.40;99.90;;;;;;5030302;28;20557;-78
2023/01/16 12:43:44;;;;;;;1.00;0.50;;;6.40;99.90;;;;;;5052353;28;20152;-77
2023/01/16 12:46:29;;;;;;;0.50;0.50;;;6.30;99.90;;;;;;5052354;28;20162;-76
2023/01/16 12:49:04;;;;;;;0.50;0.50;;;6.30;99.90;;;;;;5050142;28;20228;-76
2023/01/16 12:51:38;;;;;;;0.70;0.50;;;6.30;99.90;;;;;;5051441;28;20206;-76
2023/01/16 12:54:31;;;;;;;0.70;0.40;;;6.30;99.90;;;;;;5050998;28;20274;-75
2023/01/16 12:56:57;;;;;;;0.53;0.50;;;6.30;99.90;;;;;;5050793;28;20179;-76
2023/01/16 12:59:24;;;;;;;1.43;0.50;;;6.20;99.90;;;;;;5051360;28;20193;-76
2023/01/16 13:01:56;;;;;;;1.27;0.60;;;6.20;99.90;;;;;;5054006;28;20198;-76
2023/01/16 13:04:33;;;;;;;0.80;0.70;;;6.20;99.90;;;;;;5054112;28;20261;-77
2023/01/16 13:07:00;;;;;;;1.80;0.50;;;6.20;99.90;;;;;;5058182;28;20179;-78
2023/01/16 13:09:37;;;;;;;1.70;0.57;;;6.20;99.90;;;;;;5057034;28;20274;-78
2023/01/16 13:15:17;;;;;;;0.50;0.40;;;6.10;99.90;;;;;;5035767;28;20187;-77
2023/01/16 13:17:48;;;;;;;0.60;0.60;;;6.20;99.90;;;;;;5035905;28;20179;-77
2023/01/16 13:20:17;;;;;;;1.40;0.50;;;6.20;99.90;;;;;;5035580;28;20662;-78
2023/01/16 13:22:50;;;;;;;0.70;0.40;;;6.20;99.90;;;;;;5051519;28;20169;-77
2023/01/16 13:25:19;;;;;;;1.93;0.60;;;6.20;99.90;;;;;;5041861;28;20256;-77
2023/01/16 13:27:54;;;;;;;1.13;0.70;;;6.20;99.90;;;;;;5055275;28;20187;-78
2023/01/16 13:30:19;;;;;;;1.50;0.50;;;6.20;99.90;;;;;;5055471;28;20162;-77
2023/01/16 13:32:52;;;;;;;1.20;0.57;;;6.20;99.90;;;;;;5055427;28;20167;-77
2023/01/16 13:35:37;;;;;;;0.93;0.50;;;6.20;99.90;;;;;;5055551;28;20157;-77
2023/01/16 13:38:15;;;;;;;0.70;0.53;;;6.20;99.90;;;;;;5054197;28;20228;-77
2023/01/16 13:41:03;;;;;;;1.30;0.50;;;6.20;99.90;;;;;;5055016;28;20273;-77
2023/01/16 13:46:19;;;;;;;0.67;0.40;;;6.20;99.90;;;;;;5055444;28;20171;-77
2023/01/16 13:48:51;;;;;;;0.83;0.60;;;6.20;99.90;;;;;;5055299;28;20198;-77
2023/01/16 13:51:19;;;;;;;0.93;0.60;;;6.20;99.90;;;;;;5053177;28;20555;-77
2023/01/16 13:53:50;;;;;;;1.07;0.40;;;6.10;99.90;;;;;;5054909;28;20576;-77
2023/01/16 13:56:24;;;;;;;0.50;0.50;;;6.10;99.90;;;;;;5053607;28;20183;-77
2023/01/16 13:59:02;;;;;;;0.67;0.40;;;6.10;99.90;;;;;;5055097;28;20159;-77
2023/01/16 14:01:43;;;;;;;0.47;0.47;;;6.00;99.90;;;;;;5054727;28;20206;-77
2023/01/16 14:04:14;;;;;;;4.17;0.70;;;6.00;99.90;;;;;;5053302;28;20303;-77
2023/01/16 14:06:49;;;;;;;0.43;0.43;;;6.00;99.90;;;;;;5053364;28;20647;-77
2023/01/16 14:09:17;;;;;;;1.37;0.70;;;5.90;99.90;;;;;;5053818;28;20721;-77
2023/01/16 14:12:08;;;;;;;1.07;0.60;;;5.90;99.90;;;;;;5054463;28;20194;-78
2023/01/16 14:17:28;;;;;;;0.50;0.50;;;5.90;99.90;;;;;;5054455;28;20198;-78
2023/01/16 14:20:04;;;;;;;1.37;0.80;;;5.80;99.90;;;;;;5052997;28;20180;-77